createdAt,value
2022-09-12T00:01:50.798Z,24.98
2022-09-12T00:04:17.495Z,24.40
2022-09-12T00:06:44.143Z,25.05
2022-09-12T00:09:14.155Z,25.60
2022-09-12T00:11:44.012Z,26.90
2022-09-12T00:14:13.088Z,26.92
2022-09-12T00:16:39.791Z,25.70
2022-09-12T00:19:07.228Z,27.50
2022-09-12T00:21:35.644Z,26.20
2022-09-12T00:24:02.592Z,26.00
2022-09-12T00:26:29.350Z,24.50
2022-09-12T00:28:55.895Z,27.23
2022-09-12T00:31:24.835Z,27.15
2022-09-12T00:33:52.357Z,24.65
2022-09-12T00:36:21.904Z,26.63
2022-09-12T00:38:49.785Z,26.48
2022-09-12T00:41:21.375Z,26.08
2022-09-12T00:44:02.236Z,25.50
2022-09-12T00:46:28.718Z,24.95
2022-09-12T00:49:03.845Z,27.08
2022-09-12T00:51:33.851Z,26.83
2022-09-12T00:54:06.130Z,27.33
2022-09-12T00:56:33.062Z,27.08
2022-09-12T00:59:06.819Z,28.80
2022-09-12T01:01:33.916Z,28.27
2022-09-12T01:04:01.953Z,28.35
2022-09-12T01:06:33.075Z,27.80
2022-09-12T01:09:03.381Z,25.38
2022-09-12T01:11:32.039Z,27.05
2022-09-12T01:13:59.753Z,29.25
2022-09-12T01:16:26.342Z,26.67
2022-09-12T01:19:12.751Z,25.85
2022-09-12T01:22:16.977Z,27.00
2022-09-12T01:25:08.547Z,29.55
2022-09-12T01:27:54.498Z,28.67
2022-09-12T01:30:47.731Z,28.38
2022-09-12T01:33:23.425Z,27.83
2022-09-12T01:36:07.448Z,28.42
2022-09-12T01:38:39.738Z,25.48
2022-09-12T01:41:28.299Z,27.65
2022-09-12T01:44:12.383Z,27.63
2022-09-12T01:47:08.532Z,26.85
2022-09-12T01:49:46.281Z,26.13
2022-09-12T01:52:33.240Z,25.75
2022-09-12T01:55:38.216Z,24.95
2022-09-12T01:58:31.086Z,25.95
2022-09-12T02:01:13.889Z,26.48
2022-09-12T02:03:52.400Z,28.25
2022-09-12T02:06:23.128Z,25.17
2022-09-12T02:08:54.525Z,25.35
2022-09-12T02:11:21.611Z,27.08
2022-09-12T02:13:59.098Z,27.10
2022-09-12T02:16:37.213Z,25.88
2022-09-12T02:19:11.163Z,25.13
2022-09-12T02:24:08.358Z,26.10
2022-09-12T02:26:41.357Z,27.02
2022-09-12T02:29:08.103Z,28.37
2022-09-12T02:31:45.668Z,28.52
2022-09-12T02:34:39.894Z,27.75
2022-09-12T02:37:21.347Z,30.02
2022-09-12T02:39:47.991Z,29.08
2022-09-12T02:42:14.607Z,26.33
2022-09-12T02:44:41.856Z,26.70
2022-09-12T02:47:12.844Z,28.50
2022-09-12T02:49:39.618Z,31.35
2022-09-12T02:52:07.062Z,28.33
2022-09-12T02:54:33.752Z,29.70
2022-09-12T02:57:00.521Z,28.15
2022-09-12T02:59:27.503Z,30.23
2022-09-12T03:02:03.357Z,29.08
2022-09-12T03:04:54.150Z,27.65
2022-09-12T03:07:39.923Z,27.33
2022-09-12T03:10:33.223Z,28.70
2022-09-12T03:13:38.952Z,30.08
2022-09-12T03:16:44.311Z,29.45
2022-09-12T03:19:35.115Z,27.58
2022-09-12T03:22:15.427Z,31.63
2022-09-12T03:25:10.119Z,29.58
2022-09-12T03:28:08.247Z,28.02
2022-09-12T03:30:48.073Z,29.48
2022-09-12T03:33:20.196Z,26.05
2022-09-12T03:35:47.740Z,28.73
2022-09-12T03:38:15.084Z,31.23
2022-09-12T03:40:42.019Z,29.02
2022-09-12T03:43:09.741Z,28.27
2022-09-12T03:45:37.259Z,31.30
2022-09-12T03:48:05.072Z,29.23
2022-09-12T03:50:31.750Z,29.83
2022-09-12T03:53:02.797Z,27.08
2022-09-12T03:55:29.509Z,29.88
2022-09-12T03:57:56.532Z,32.45
2022-09-12T04:00:24.182Z,32.40
2022-09-12T04:02:55.416Z,30.70
2022-09-12T04:05:22.071Z,29.65
2022-09-12T04:07:48.848Z,32.22
2022-09-12T04:10:16.356Z,32.53
2022-09-12T04:12:43.314Z,30.15
2022-09-12T04:15:10.402Z,33.15
2022-09-12T04:17:37.010Z,28.60
2022-09-12T04:20:04.140Z,27.10
2022-09-12T04:22:31.999Z,25.77
2022-09-12T04:24:58.554Z,28.13
2022-09-12T04:27:25.203Z,27.83
2022-09-12T04:29:51.879Z,26.13
2022-09-12T04:32:18.929Z,26.65
2022-09-12T04:34:47.057Z,26.75
2022-09-12T04:37:13.708Z,26.95
2022-09-12T04:39:41.325Z,25.17
2022-09-12T04:42:07.946Z,22.10
2022-09-12T04:44:34.558Z,21.63
2022-09-12T04:47:01.134Z,21.98
2022-09-12T04:49:27.760Z,22.10
2022-09-12T04:51:55.207Z,21.05
2022-09-12T04:54:21.783Z,21.27
2022-09-12T04:56:50.228Z,20.92
2022-09-12T04:59:21.492Z,19.63
2022-09-12T05:01:48.769Z,20.70
2022-09-12T05:04:15.843Z,18.73
2022-09-12T05:06:43.071Z,16.65
2022-09-12T05:09:12.443Z,17.95
2022-09-12T05:12:03.233Z,18.63
2022-09-12T05:14:33.071Z,20.38
2022-09-12T05:17:01.657Z,22.55
2022-09-12T05:19:30.367Z,21.58
2022-09-12T05:21:57.245Z,20.40
2022-09-12T05:24:24.754Z,22.00
2022-09-12T05:26:51.345Z,21.50
2022-09-12T05:29:17.996Z,21.83
2022-09-12T05:31:44.642Z,21.33
2022-09-12T05:34:11.374Z,22.52
2022-09-12T05:36:38.619Z,24.27
2022-09-12T05:39:05.666Z,33.20
2022-09-12T05:41:33.934Z,31.63
2022-09-12T05:44:03.009Z,30.83
2022-09-12T05:46:32.747Z,25.15
2022-09-12T05:49:04.501Z,30.95
2022-09-12T05:51:34.328Z,29.00
2022-09-12T05:54:05.802Z,28.58
2022-09-12T05:56:34.995Z,23.75
2022-09-12T05:59:04.805Z,28.90
2022-09-12T06:01:33.376Z,29.20
2022-09-12T06:04:03.341Z,29.02
2022-09-12T06:06:31.507Z,34.75
2022-09-12T06:09:00.399Z,25.80
2022-09-12T06:11:28.900Z,25.23
2022-09-12T06:13:57.460Z,27.33
2022-09-12T06:16:26.803Z,29.65
2022-09-12T06:18:55.850Z,33.95
2022-09-12T06:21:24.362Z,39.92
2022-09-12T06:23:51.266Z,53.80
2022-09-12T06:26:21.662Z,44.22
2022-09-12T06:28:48.302Z,40.42
2022-09-12T06:31:17.686Z,25.67
2022-09-12T06:33:47.403Z,27.65
2022-09-12T06:36:16.491Z,34.65
2022-09-12T06:38:43.296Z,29.85
2022-09-12T06:41:12.475Z,38.22
2022-09-12T06:43:40.734Z,38.20
2022-09-12T06:46:07.698Z,45.83
2022-09-12T06:48:36.463Z,28.83
2022-09-12T06:51:13.475Z,34.28
2022-09-12T06:53:40.271Z,40.38
2022-09-12T06:56:10.217Z,43.30
2022-09-12T06:58:37.196Z,40.10
2022-09-12T07:01:09.597Z,40.63
2022-09-12T07:03:37.358Z,46.42
2022-09-12T07:06:09.555Z,46.83
2022-09-12T07:08:37.425Z,47.03
2022-09-12T07:11:15.362Z,34.20
2022-09-12T07:13:43.334Z,41.45
2022-09-12T07:16:13.027Z,44.67
2022-09-12T07:18:43.612Z,46.13
2022-09-12T07:21:12.973Z,44.22
2022-09-12T07:23:40.721Z,47.80
2022-09-12T07:26:09.716Z,46.85
2022-09-12T07:28:37.021Z,40.85
2022-09-12T07:31:07.803Z,39.40
2022-09-12T07:33:34.939Z,35.85
2022-09-12T07:36:03.903Z,31.48
2022-09-12T07:38:31.034Z,35.58
2022-09-12T07:40:57.966Z,36.70
2022-09-12T07:43:25.247Z,36.08
2022-09-12T07:45:56.237Z,35.33
2022-09-12T07:48:23.285Z,30.88
2022-09-12T07:51:00.619Z,37.38
2022-09-12T07:53:32.423Z,34.30
2022-09-12T07:55:59.030Z,35.60
2022-09-12T07:58:25.621Z,32.05
2022-09-12T08:00:52.424Z,34.85
2022-09-12T08:03:19.055Z,33.63
2022-09-12T08:05:45.737Z,28.55
2022-09-12T08:08:12.386Z,30.15
2022-09-12T08:10:39.057Z,28.90
2022-09-12T08:13:05.605Z,29.52
2022-09-12T08:15:32.276Z,28.65
2022-09-12T08:17:58.849Z,29.73
2022-09-12T08:20:28.368Z,27.42
2022-09-12T08:22:55.160Z,26.90
2022-09-12T08:25:21.874Z,24.55
2022-09-12T08:27:48.456Z,23.80
2022-09-12T08:30:15.154Z,24.30
2022-09-12T08:32:41.755Z,22.90
2022-09-12T08:35:08.461Z,22.35
2022-09-12T08:37:35.000Z,23.10
2022-09-12T08:40:01.903Z,22.40
2022-09-12T08:42:57.690Z,20.98
2022-09-12T08:45:36.837Z,20.33
2022-09-12T08:48:06.005Z,21.38
2022-09-12T08:50:32.659Z,21.25
2022-09-12T08:53:04.685Z,20.58
2022-09-12T08:55:35.504Z,21.13
2022-09-12T08:58:12.102Z,20.92
2022-09-12T09:00:48.906Z,21.20
2022-09-12T09:03:44.450Z,19.70
2022-09-12T09:06:35.418Z,17.48
2022-09-12T09:09:29.990Z,16.98
2022-09-12T09:12:23.821Z,17.70
2022-09-12T09:15:13.198Z,16.55
2022-09-12T09:17:50.356Z,17.88
2022-09-12T09:20:54.295Z,17.08
2022-09-12T09:23:27.467Z,17.45
2022-09-12T09:25:59.651Z,16.83
2022-09-12T09:28:52.854Z,17.17
2022-09-12T09:31:24.821Z,16.05
2022-09-12T09:33:54.222Z,15.90
2022-09-12T09:36:47.266Z,16.73
2022-09-12T09:39:16.616Z,19.02
2022-09-12T09:42:03.821Z,16.30
2022-09-12T09:44:31.398Z,16.05
2022-09-12T09:46:59.658Z,16.55
2022-09-12T09:49:33.326Z,15.73
2022-09-12T09:52:01.164Z,15.75
2022-09-12T09:54:36.434Z,14.10
2022-09-12T09:57:05.177Z,16.48
2022-09-12T09:59:36.788Z,14.20
2022-09-12T10:02:12.202Z,14.52
2022-09-12T10:04:53.982Z,15.10
2022-09-12T10:07:22.235Z,14.30
2022-09-12T10:10:15.141Z,14.93
2022-09-12T10:12:41.867Z,13.70
2022-09-12T10:15:26.209Z,13.45
2022-09-12T10:17:55.464Z,12.05
2022-09-12T10:20:40.588Z,12.48
2022-09-12T10:23:19.633Z,14.05
2022-09-12T10:25:56.509Z,12.20
2022-09-12T10:28:31.289Z,12.95
2022-09-12T10:31:00.080Z,12.25
2022-09-12T10:33:27.786Z,13.73
2022-09-12T10:35:55.854Z,11.38
2022-09-12T10:38:27.788Z,12.35
2022-09-12T10:41:09.658Z,12.57
2022-09-12T10:43:38.869Z,12.50
2022-09-12T10:46:17.451Z,12.35
2022-09-12T10:48:46.098Z,11.13
2022-09-12T10:51:24.612Z,10.95
2022-09-12T10:54:06.445Z,11.90
2022-09-12T10:56:38.931Z,11.18
2022-09-12T10:59:34.329Z,11.07
2022-09-12T11:02:10.420Z,10.35
2022-09-12T11:04:52.309Z,10.45
2022-09-12T11:07:29.680Z,10.52
2022-09-12T11:10:38.792Z,10.50
2022-09-12T11:13:30.041Z,9.85
2022-09-12T11:16:08.319Z,9.15
2022-09-12T11:18:53.837Z,9.98
2022-09-12T11:21:39.645Z,9.13
2022-09-12T11:24:23.676Z,8.38
2022-09-12T11:29:48.134Z,9.30
2022-09-12T11:32:49.102Z,7.80
2022-09-12T11:35:17.653Z,8.25
2022-09-12T11:37:56.302Z,8.27
2022-09-12T11:40:55.707Z,8.98
2022-09-12T11:43:34.468Z,8.48
2022-09-12T11:46:12.102Z,9.15
2022-09-12T11:48:55.595Z,8.07
2022-09-12T11:51:30.554Z,8.95
2022-09-12T11:54:09.301Z,9.38
2022-09-12T11:56:40.557Z,9.57
2022-09-12T11:59:15.597Z,8.45
2022-09-12T12:01:48.483Z,7.38
2022-09-12T12:04:20.659Z,8.13
2022-09-12T12:06:54.853Z,7.45
2022-09-12T12:09:21.482Z,8.02
2022-09-12T12:11:53.741Z,8.13
2022-09-12T12:14:25.071Z,8.07
2022-09-12T12:16:51.869Z,7.63
2022-09-12T12:19:18.453Z,7.03
2022-09-12T12:21:45.803Z,6.78
2022-09-12T12:24:15.569Z,7.00
2022-09-12T12:26:42.460Z,6.63
2022-09-12T12:29:18.215Z,7.18
2022-09-12T12:31:59.918Z,6.95
2022-09-12T12:34:41.095Z,7.18
2022-09-12T12:37:19.727Z,6.85
2022-09-12T12:39:50.082Z,7.35
2022-09-12T12:42:35.109Z,5.85
2022-09-12T12:45:08.588Z,5.80
2022-09-12T12:47:37.931Z,5.90
2022-09-12T12:50:10.702Z,5.30
2022-09-12T12:52:57.662Z,4.72
2022-09-12T12:55:42.559Z,4.45
2022-09-12T12:58:37.227Z,4.80
2022-09-12T13:01:09.691Z,4.57
2022-09-12T13:03:38.268Z,4.20
2022-09-12T13:06:08.161Z,4.35
2022-09-12T13:08:39.080Z,4.88
2022-09-12T13:11:11.048Z,4.53
2022-09-12T13:13:53.702Z,3.97
2022-09-12T13:16:34.782Z,3.95
2022-09-12T13:19:18.000Z,4.40
2022-09-12T13:22:00.424Z,3.95
2022-09-12T13:24:27.171Z,4.50
2022-09-12T13:26:54.008Z,4.07
2022-09-12T13:29:23.272Z,4.40
2022-09-12T13:31:54.477Z,4.00
2022-09-12T13:34:24.823Z,4.38
2022-09-12T13:37:22.409Z,4.18
2022-09-12T13:39:55.673Z,4.30
2022-09-12T13:42:37.216Z,4.97
2022-09-12T13:45:06.844Z,3.90
2022-09-12T13:47:36.915Z,4.80
2022-09-12T13:50:05.930Z,4.22
2022-09-12T13:52:34.509Z,4.25
2022-09-12T13:55:05.473Z,4.22
2022-09-12T13:57:39.616Z,4.10
2022-09-12T14:00:16.226Z,3.90
2022-09-12T14:02:42.893Z,4.50
2022-09-12T14:05:19.869Z,5.20
2022-09-12T14:07:53.372Z,3.97
2022-09-12T14:10:33.162Z,4.32
2022-09-12T14:13:02.714Z,4.63
2022-09-12T14:15:32.700Z,4.63
2022-09-12T14:18:01.821Z,4.15
2022-09-12T14:23:12.476Z,5.32
2022-09-12T14:25:46.047Z,4.60
2022-09-12T14:28:14.677Z,4.47
2022-09-12T14:30:41.330Z,4.80
2022-09-12T14:33:10.895Z,5.07
2022-09-12T14:35:43.435Z,4.55
2022-09-12T14:38:16.562Z,4.70
2022-09-12T14:40:49.005Z,4.33
2022-09-12T14:43:20.147Z,4.85
2022-09-12T14:45:54.583Z,4.63
2022-09-12T14:48:21.359Z,4.95
2022-09-12T14:50:53.306Z,4.18
2022-09-12T14:53:22.488Z,4.78
2022-09-12T14:55:57.501Z,4.20
2022-09-12T14:58:26.638Z,5.07
2022-09-12T15:00:56.198Z,4.68
2022-09-12T15:03:30.236Z,4.40
2022-09-12T15:05:57.392Z,4.50
2022-09-12T15:08:25.047Z,4.50
2022-09-12T15:10:51.646Z,4.57
2022-09-12T15:13:21.380Z,4.40
2022-09-12T15:15:50.742Z,4.20
2022-09-12T15:18:18.867Z,4.38
2022-09-12T15:20:47.575Z,4.10
2022-09-12T15:23:29.462Z,4.80
2022-09-12T15:25:56.048Z,3.80
2022-09-12T15:28:23.848Z,3.80
2022-09-12T15:30:53.019Z,4.20
2022-09-12T15:33:22.902Z,4.10
2022-09-12T15:35:50.247Z,4.30
2022-09-12T15:38:16.970Z,4.13
2022-09-12T15:40:43.526Z,3.60
2022-09-12T15:43:13.353Z,3.30
2022-09-12T15:45:43.585Z,3.33
2022-09-12T15:48:10.310Z,4.22
2022-09-12T15:50:36.989Z,3.75
2022-09-12T15:53:03.544Z,4.05
2022-09-12T15:55:32.253Z,3.45
2022-09-12T15:58:02.532Z,4.03
2022-09-12T16:00:32.938Z,3.30
2022-09-12T16:02:59.562Z,3.33
2022-09-12T16:05:26.810Z,3.53
2022-09-12T16:07:54.869Z,3.53
2022-09-12T16:10:24.057Z,3.08
2022-09-12T16:12:51.462Z,3.40
2022-09-12T16:15:21.370Z,3.38
2022-09-12T16:17:48.624Z,4.32
2022-09-12T16:20:15.189Z,3.20
2022-09-12T16:22:42.585Z,3.22
2022-09-12T16:25:09.724Z,4.13
2022-09-12T16:27:37.080Z,3.28
2022-09-12T16:30:06.136Z,3.70
2022-09-12T16:32:33.181Z,3.05
2022-09-12T16:35:00.163Z,3.90
2022-09-12T16:37:26.724Z,3.75
2022-09-12T16:39:53.664Z,3.78
2022-09-12T16:42:20.371Z,3.65
2022-09-12T16:44:47.091Z,3.53
2022-09-12T16:47:14.609Z,3.80
2022-09-12T16:49:41.172Z,3.95
2022-09-12T16:52:08.231Z,3.42
2022-09-12T16:54:34.907Z,3.88
2022-09-12T16:57:01.651Z,3.53
2022-09-12T16:59:28.189Z,3.85
2022-09-12T17:01:54.784Z,4.10
2022-09-12T17:04:23.685Z,3.92
2022-09-12T17:06:50.494Z,3.67
2022-09-12T17:09:18.704Z,3.85
2022-09-12T17:11:47.602Z,3.42
2022-09-12T17:14:14.352Z,4.10
2022-09-12T17:16:46.913Z,4.03
2022-09-12T17:19:26.687Z,3.45
2022-09-12T17:21:54.068Z,3.47
2022-09-12T17:24:20.986Z,4.05
2022-09-12T17:26:47.606Z,3.83
2022-09-12T17:29:15.088Z,4.03
2022-09-12T17:31:42.312Z,4.43
2022-09-12T17:34:09.710Z,4.53
2022-09-12T17:36:36.507Z,4.88
2022-09-12T17:39:04.235Z,3.95
2022-09-12T17:41:33.779Z,4.82
2022-09-12T17:44:02.655Z,4.32
2022-09-12T17:46:36.428Z,4.43
2022-09-12T17:49:06.166Z,4.63
2022-09-12T17:51:33.053Z,4.53
2022-09-12T17:54:06.725Z,4.55
2022-09-12T17:56:35.010Z,4.28
2022-09-12T17:59:01.890Z,4.03
2022-09-12T18:01:47.928Z,4.47
2022-09-12T18:04:14.664Z,4.70
2022-09-12T18:06:47.793Z,4.95
2022-09-12T18:09:16.424Z,4.80
2022-09-12T18:11:43.170Z,4.85
2022-09-12T18:14:13.884Z,4.22
2022-09-12T18:16:41.228Z,4.97
2022-09-12T18:19:07.800Z,4.75
2022-09-12T18:21:34.457Z,4.55
2022-09-12T18:24:01.537Z,4.95
2022-09-12T18:26:29.035Z,5.43
2022-09-12T18:28:56.171Z,4.75
2022-09-12T18:31:26.126Z,4.75
2022-09-12T18:33:53.259Z,5.00
2022-09-12T18:36:20.987Z,5.05
2022-09-12T18:38:48.160Z,5.40
2022-09-12T18:41:18.417Z,5.22
2022-09-12T18:43:45.216Z,5.25
2022-09-12T18:46:14.823Z,4.55
2022-09-12T18:48:42.023Z,5.25
2022-09-12T18:51:20.432Z,5.00
2022-09-12T18:53:52.992Z,5.47
2022-09-12T18:56:20.506Z,4.90
2022-09-12T18:58:51.050Z,4.93
2022-09-12T19:01:20.662Z,5.00
2022-09-12T19:03:47.874Z,5.00
2022-09-12T19:06:20.196Z,6.30
2022-09-12T19:08:47.878Z,5.20
2022-09-12T19:11:18.685Z,4.95
2022-09-12T19:13:46.630Z,5.63
2022-09-12T19:16:16.489Z,4.97
2022-09-12T19:18:43.633Z,4.85
2022-09-12T19:21:22.771Z,5.85
2022-09-12T19:23:49.708Z,5.95
2022-09-12T19:26:17.818Z,5.25
2022-09-12T19:28:45.360Z,5.13
2022-09-12T19:31:14.607Z,5.20
2022-09-12T19:33:41.830Z,6.18
2022-09-12T19:36:27.589Z,5.57
2022-09-12T19:38:59.017Z,5.90
2022-09-12T19:41:25.596Z,5.45
2022-09-12T19:43:52.211Z,5.25
2022-09-12T19:46:20.945Z,5.90
2022-09-12T19:48:48.342Z,5.82
2022-09-12T19:51:15.919Z,6.50
2022-09-12T19:53:43.354Z,5.68
2022-09-12T19:56:11.952Z,5.20
2022-09-12T19:58:40.538Z,5.75
2022-09-12T20:01:30.306Z,5.93
2022-09-12T20:03:58.235Z,5.78
2022-09-12T20:06:26.053Z,5.95
2022-09-12T20:08:52.652Z,5.97
2022-09-12T20:11:20.875Z,6.35
2022-09-12T20:13:47.748Z,5.75
2022-09-12T20:16:21.370Z,6.25
2022-09-12T20:18:53.566Z,6.10
2022-09-12T20:21:24.954Z,6.72
2022-09-12T20:23:51.637Z,5.95
2022-09-12T20:26:20.270Z,6.07
2022-09-12T20:28:46.997Z,7.10
2022-09-12T20:31:15.624Z,6.38
2022-09-12T20:33:43.203Z,6.72
2022-09-12T20:36:12.599Z,6.53
2022-09-12T20:38:40.182Z,7.03
2022-09-12T20:41:09.794Z,6.65
2022-09-12T20:43:38.576Z,7.43
2022-09-12T20:46:12.532Z,7.22
2022-09-12T20:48:39.604Z,6.28
2022-09-12T20:51:07.342Z,5.97
2022-09-12T20:53:35.440Z,6.50
2022-09-12T20:56:03.275Z,7.32
2022-09-12T20:58:29.803Z,7.05
2022-09-12T21:00:56.577Z,6.85
2022-09-12T21:03:23.244Z,6.28
2022-09-12T21:05:49.850Z,6.90
2022-09-12T21:08:16.965Z,6.32
2022-09-12T21:10:44.743Z,6.38
2022-09-12T21:13:12.091Z,6.32
2022-09-12T21:15:39.988Z,6.70
2022-09-12T21:18:06.956Z,6.65
2022-09-12T21:20:33.980Z,6.97
2022-09-12T21:23:00.548Z,7.32
2022-09-12T21:25:28.954Z,6.72
2022-09-12T21:27:55.551Z,6.72
2022-09-12T21:30:22.433Z,6.53
2022-09-12T21:32:49.083Z,6.03
2022-09-12T21:35:15.844Z,7.05
2022-09-12T21:37:42.376Z,7.10
2022-09-12T21:40:09.303Z,7.28
2022-09-12T21:42:35.840Z,6.65
2022-09-12T21:45:02.429Z,7.25
2022-09-12T21:47:29.160Z,7.03
2022-09-12T21:49:55.771Z,7.50
2022-09-12T21:52:22.350Z,7.43
2022-09-12T21:54:48.908Z,7.05
2022-09-12T21:57:15.726Z,7.47
2022-09-12T21:59:42.420Z,7.10
2022-09-12T22:02:10.843Z,7.85
2022-09-12T22:04:37.480Z,7.10
2022-09-12T22:07:05.402Z,7.22
2022-09-12T22:09:32.922Z,7.63
2022-09-12T22:11:59.461Z,8.38
2022-09-12T22:14:26.252Z,9.32
2022-09-12T22:16:52.794Z,8.85
2022-09-12T22:19:19.682Z,9.93
2022-09-12T22:22:04.952Z,9.50
2022-09-12T22:24:31.621Z,10.40
2022-09-12T22:26:59.230Z,9.63
2022-09-12T22:29:26.846Z,10.13
2022-09-12T22:31:53.844Z,10.68
2022-09-12T22:34:20.474Z,9.82
2022-09-12T22:36:50.196Z,9.75
2022-09-12T22:39:16.752Z,9.40
2022-09-12T22:41:43.345Z,8.88
2022-09-12T22:44:10.807Z,9.10
2022-09-12T22:46:38.006Z,8.68
2022-09-12T22:49:05.828Z,9.25
2022-09-12T22:51:33.051Z,9.68
2022-09-12T22:53:59.991Z,8.40
2022-09-12T22:56:26.904Z,9.10
2022-09-12T22:58:54.134Z,9.30
2022-09-12T23:01:20.992Z,8.45
2022-09-12T23:03:47.714Z,10.00
2022-09-12T23:06:14.384Z,9.38
2022-09-12T23:08:41.486Z,8.93
2022-09-12T23:11:14.171Z,8.27
2022-09-12T23:13:48.621Z,7.90
2022-09-12T23:16:18.650Z,9.18
2022-09-12T23:18:45.661Z,8.98
2022-09-12T23:21:13.517Z,8.95
2022-09-12T23:23:40.703Z,9.23
2022-09-12T23:26:19.494Z,9.73
2022-09-12T23:28:54.268Z,10.13
2022-09-12T23:31:29.859Z,9.63
2022-09-12T23:33:58.866Z,8.82
2022-09-12T23:36:27.194Z,8.50
2022-09-12T23:38:54.873Z,9.90
2022-09-12T23:41:22.452Z,9.68
2022-09-12T23:43:49.022Z,10.48
2022-09-12T23:46:16.856Z,13.35
2022-09-12T23:48:44.122Z,9.07
2022-09-12T23:51:11.612Z,10.02
2022-09-12T23:53:38.738Z,9.88
2022-09-12T23:56:05.849Z,9.65
2022-09-12T23:58:32.384Z,9.77
